Lexington, KY (40574)

12:53 AM EST on February 13, 2016 (GMT -0500)
Eastland | | Change Station
CLOSE
Current Station
Personal Weather Station
Location: Lexington, KY
Elevation: 988 ft
Nearby Weather Stations

Elev 988 ft 38.06 °N, 84.43 °W | Updated 19 minutes ago

Overcast
Overcast
21.7 °F
Feels Like 17 °F
N
3.2
Wind Variable Wind from West

Today
High -- | Low -- °F
--% Chance of Precip.
Yesterday
High -- | Low -- °F
Precip. -- in
Pressure 30.32 in
Visibility 10.0 miles
Clouds Scattered Clouds 4200 ft
Mostly Cloudy 5000 ft
Windchill 17 °F
Dew Point 8 °F
Humidity 55%
Rainfall 0.00 in
Snow Depth Not available.
7:30 AM 6:13 PM
Waxing Crescent, 27% visible
METAR KLEX 130454Z 31013KT 10SM SCT042 BKN050 M05/M12 A3029 RMK AO2 PK WND 31027/0417 SNB0355E26 SLP267 P0000 T10501122 400001056
Pressure 30.32 in
Visibility 10.0 miles
Clouds Scattered Clouds 4200 ft
Mostly Cloudy 5000 ft
Windchill 17 °F
Dew Point 8 °F
Humidity 55%
Rainfall 0.00 in
Snow Depth Not available.
7:30 AM 6:13 PM
Waxing Crescent, 27% visible
METAR KLEX 130454Z 31013KT 10SM SCT042 BKN050 M05/M12 A3029 RMK AO2 PK WND 31027/0417 SNB0355E26 SLP267 P0000 T10501122 400001056

10-Day Weather Forecast

Almanac

Astronomy

Feb. 13, 2016 Rise Set
Actual Time
Civil Twilight
Nautical Twilight
Astronomical Twilight
Moon
Length of Visible Light
Length of Day
Tomorrow will be .
, % of the Moon is Illuminated

Today's Extremes

State Highs State Lows

Community

WunderPhotos

Upload Photos

1,892,507 photos uploaded!

WunderBlog® & News

Nearby

Air Quality

  Air Quality AQ Index Pollutant
Not available.

Snow Depth

Station Depth Elevation

Earthquake Activity

City Distance Mag. Time & Date
Minimum magnitude displayed is 2.5.

Coastal Water Temperatures

Place Temperature

Stations

Nearby Weather Stations

Station Location Temp. Windchill Dew Point Humidity Wind Precip. Elev Updated Type
                   

Watches & Warnings

There are currently no watches in effect.